This is the latest recevied weather packets stored in our database for station/object WMKP. If no packets are shown the sender has not sent any weather packets the latest 1 day(s).
| Time | Temp. | Humidity | Pressure | Rain* | Wind** | Luminosity | Snow |
|---|---|---|---|---|---|---|---|
| 1778024407 | 25° C | 94% | 1008 hPa | - | 0.89 m/s, 0° | - | - |
| 1778022625 | 25° C | 94% | 1007 hPa | - | 0 m/s | - | - |
| 1778020815 | 25° C | 88% | 1007 hPa | - | 0.89 m/s, 0° | - | - |
| 1778019035 | 25° C | 88% | 1007 hPa | - | 0.89 m/s, 0° | - | - |
| 1778017207 | 25° C | 88% | 1007 hPa | - | 1.34 m/s, 10° | - | - |
| 1778016600 | 25° C | 88% | 1007 hPa | - | 2.24 m/s, 70° | - | - |
| 1778015425 | 25° C | 88% | 1007 hPa | - | 0 m/s | - | - |
| 1778013612 | 23.89° C | 94% | 1007 hPa | - | 0.89 m/s, 0° | - | - |
| 1778011826 | 23.89° C | 94% | 1007 hPa | - | 0.89 m/s, 0° | - | - |
| 1778010007 | 25° C | 88% | 1007 hPa | - | 3.58 m/s, 240° | - | - |
| 1778009409 | 25° C | 94% | 1008 hPa | - | 3.13 m/s, 200° | - | - |
| 1778008225 | 25.56° C | 83% | 1008 hPa | - | 4.02 m/s, 210° | - | - |
| 1778006414 | 26.67° C | 88% | 1008 hPa | - | 0.89 m/s, 0° | - | - |
| 1778004635 | 26.67° C | 88% | 1008 hPa | - | 0.89 m/s, 0° | - | - |
| 1778002807 | 27.78° C | 83% | 1008 hPa | - | 0.89 m/s, 0° | - | - |
| 1778001024 | 27.78° C | 83% | 1008 hPa | - | 0.45 m/s, 0° | - | - |
| 1777999208 | 27.78° C | 83% | 1008 hPa | - | 0 m/s | - | - |
| 1777997425 | 27.78° C | 83% | 1008 hPa | - | 0 m/s | - | - |
| 1777995606 | 27.78° C | 83% | 1008 hPa | - | 0 m/s | - | - |
| 1777995024 | 27.78° C | 83% | 1008 hPa | - | 0 m/s | - | - |
| 1777994441 | 26.11° C | 91% | 1010.4 hPa | - | 0.89 m/s, 37° | - | - |
| 1777993824 | 27.78° C | 83% | 1008 hPa | - | 0 m/s | - | - |
| 1777992012 | 27.78° C | 83% | 1008 hPa | - | 0 m/s | - | - |
| 1777990227 | 27.78° C | 83% | 1007 hPa | - | 0 m/s | - | - |
| 1777988406 | 27.78° C | 83% | 1007 hPa | - | 0.89 m/s, 0° | - | - |
* Rain since midnight (hover to see other rain measurements)
** Current wind speed in m/s (hover to see current wind gust speed)